createdAt,value
2023-04-24T00:00:00.031Z,97765.50
2023-04-24T00:05:03.972Z,97765.50
2023-04-24T00:10:08.016Z,97765.50
2023-04-24T00:15:13.420Z,97770.63
2023-04-24T00:20:16.729Z,97796.31
2023-04-24T00:25:19.793Z,97794.03
2023-04-24T00:30:24.015Z,97781.06
2023-04-24T00:35:27.102Z,97772.75
2023-04-24T00:40:30.708Z,97777.22
2023-04-24T00:45:35.083Z,97776.06
2023-04-24T00:50:38.330Z,97777.22
2023-04-24T00:55:41.361Z,97774.34
2023-04-24T01:00:47.181Z,97764.00
2023-04-24T01:05:51.067Z,97756.72
2023-04-24T01:10:54.969Z,97755.25
2023-04-24T01:15:59.756Z,97760.03
2023-04-24T01:21:06.509Z,97758.63
2023-04-24T01:26:10.863Z,97766.34
2023-04-24T01:31:13.877Z,97761.19
2023-04-24T01:36:18.481Z,97766.09
2023-04-24T01:41:22.967Z,97765.53
2023-04-24T01:46:26.594Z,97759.72
2023-04-24T01:51:29.552Z,97765.38
2023-04-24T01:56:36.279Z,97755.47
2023-04-24T02:01:40.498Z,97755.00
2023-04-24T02:06:43.461Z,97757.94
2023-04-24T02:11:47.887Z,97755.25
2023-04-24T02:16:50.887Z,97754.41
2023-04-24T02:21:53.900Z,97772.75
2023-04-24T02:26:58.933Z,97762.13
2023-04-24T02:32:02.284Z,97764.47
2023-04-24T02:37:05.219Z,97766.63
2023-04-24T02:42:09.566Z,97755.84
2023-04-24T02:47:12.494Z,97762.88
2023-04-24T02:52:15.710Z,97754.41
2023-04-24T02:57:20.055Z,97744.28
2023-04-24T03:02:23.126Z,97746.41
2023-04-24T03:07:26.321Z,97738.75
2023-04-24T03:12:30.629Z,97740.34
2023-04-24T03:17:33.679Z,97742.97
2023-04-24T03:22:36.631Z,97743.84
2023-04-24T03:27:44.373Z,97745.78
2023-04-24T03:32:59.292Z,97752.00
2023-04-24T03:38:06.359Z,97749.28
2023-04-24T03:43:22.963Z,97760.88
2023-04-24T03:48:26.579Z,97756.41
2023-04-24T03:53:29.964Z,97763.22
2023-04-24T03:58:35.129Z,97773.28
2023-04-24T04:03:38.544Z,97775.38
2023-04-24T04:08:42.065Z,97777.50
2023-04-24T04:13:48.857Z,97793.81
2023-04-24T04:18:54.165Z,97779.84
2023-04-24T04:23:57.719Z,97779.31
2023-04-24T04:29:11.858Z,97784.34
2023-04-24T04:34:19.442Z,97774.91
2023-04-24T04:39:22.714Z,97775.44
2023-04-24T04:44:36.843Z,97764.63
2023-04-24T04:49:42.308Z,97770.91
2023-04-24T04:54:52.607Z,97777.75
2023-04-24T04:59:57.537Z,97781.25
2023-04-24T05:05:15.161Z,97785.25
2023-04-24T05:10:18.348Z,97796.50
2023-04-24T05:15:23.075Z,97792.34
2023-04-24T05:20:26.352Z,97787.66
2023-04-24T05:25:33.160Z,97794.53
2023-04-24T05:30:44.155Z,97802.03
2023-04-24T05:35:48.726Z,97804.13
2023-04-24T05:40:52.300Z,97793.13
2023-04-24T05:45:56.600Z,97799.41
2023-04-24T05:50:59.642Z,97801.50
2023-04-24T05:56:02.677Z,97808.91
2023-04-24T06:01:07.955Z,97807.31
2023-04-24T06:06:11.535Z,97812.06
2023-04-24T06:11:14.548Z,97813.13
2023-04-24T06:16:18.960Z,97810.25
2023-04-24T06:21:28.800Z,97810.25
2023-04-24T06:26:32.666Z,97803.63
2023-04-24T06:31:38.145Z,97813.41
2023-04-24T06:36:41.560Z,97816.75
2023-04-24T06:41:44.489Z,97814.09
2023-04-24T06:46:56.966Z,97817.97
2023-04-24T06:51:59.802Z,97817.78
2023-04-24T06:57:03.437Z,97822.94
2023-04-24T07:02:07.742Z,97820.16
2023-04-24T07:07:14.047Z,97829.88
2023-04-24T07:12:17.918Z,97825.81
2023-04-24T07:17:22.236Z,97838.31
2023-04-24T07:22:25.317Z,97836.19
2023-04-24T07:27:28.677Z,97840.16
2023-04-24T07:32:32.945Z,97839.09
2023-04-24T07:37:35.978Z,97844.66
2023-04-24T07:42:39.297Z,97844.97
2023-04-24T07:47:44.929Z,97848.44
2023-04-24T07:52:49.005Z,97842.28
2023-04-24T07:57:51.993Z,97854.53
2023-04-24T08:02:56.330Z,97844.59
2023-04-24T08:07:59.481Z,97844.78
2023-04-24T08:13:02.393Z,97848.81
2023-04-24T08:18:07.095Z,97848.84
2023-04-24T08:23:10.164Z,97852.13
2023-04-24T08:28:14.595Z,97855.16
2023-04-24T08:33:21.499Z,97856.78
2023-04-24T08:38:26.047Z,97857.94
2023-04-24T08:43:29.421Z,97862.59
2023-04-24T08:48:34.003Z,97859.22
2023-04-24T08:53:37.517Z,97864.38
2023-04-24T08:58:41.097Z,97865.25
2023-04-24T09:03:45.865Z,97869.13
2023-04-24T09:08:52.181Z,97860.97
2023-04-24T09:13:56.005Z,97866.47
2023-04-24T09:19:00.300Z,97866.31
2023-04-24T09:24:04.619Z,97870.69
2023-04-24T09:29:07.558Z,97863.44
2023-04-24T09:34:12.035Z,97872.00
2023-04-24T09:39:16.627Z,97864.38
2023-04-24T09:44:22.209Z,97872.72
2023-04-24T09:49:27.964Z,97860.34
2023-04-24T09:54:30.891Z,97872.00
2023-04-24T09:59:35.194Z,97868.41
2023-04-24T10:04:41.277Z,97863.84
2023-04-24T10:09:44.822Z,97857.06
2023-04-24T10:14:48.692Z,97853.09
2023-04-24T10:19:53.972Z,97855.56
2023-04-24T10:24:58.213Z,97853.69
2023-04-24T10:30:02.678Z,97849.81
2023-04-24T10:35:08.754Z,97845.56
2023-04-24T10:40:13.977Z,97836.69
2023-04-24T10:45:22.447Z,97851.47
2023-04-24T10:50:28.836Z,97849.00
2023-04-24T10:55:46.789Z,97857.72
2023-04-24T11:00:59.207Z,97859.41
2023-04-24T11:06:05.167Z,97871.59
2023-04-24T11:11:13.223Z,97866.84
2023-04-24T11:16:24.013Z,97874.47
2023-04-24T11:21:33.645Z,97880.69
2023-04-24T11:26:40.616Z,97881.69
2023-04-24T11:31:50.336Z,97874.81
2023-04-24T11:36:55.733Z,97864.47
2023-04-24T11:42:04.661Z,97865.91
2023-04-24T11:47:08.093Z,97863.91
2023-04-24T11:52:12.767Z,97858.09
2023-04-24T11:57:15.649Z,97873.34
2023-04-24T12:02:25.919Z,97861.94
2023-04-24T12:07:30.323Z,97867.78
2023-04-24T12:12:33.261Z,97870.84
2023-04-24T12:17:38.075Z,97876.50
2023-04-24T12:22:51.267Z,97869.75
2023-04-24T12:27:56.203Z,97854.84
2023-04-24T12:33:01.373Z,97861.09
2023-04-24T12:38:10.098Z,97883.03
2023-04-24T12:43:17.525Z,97875.31
2023-04-24T12:48:21.318Z,97874.22
2023-04-24T12:53:27.631Z,97895.47
2023-04-24T12:58:30.787Z,97880.22
2023-04-24T13:03:33.775Z,97874.53
2023-04-24T13:08:38.075Z,97880.94
2023-04-24T13:13:41.247Z,97850.31
2023-04-24T13:18:44.415Z,97875.41
2023-04-24T13:23:48.742Z,97872.34
2023-04-24T13:28:51.633Z,97860.22
2023-04-24T13:33:54.970Z,97873.59
2023-04-24T13:38:59.733Z,97876.50
2023-04-24T13:44:04.094Z,97881.56
2023-04-24T13:49:07.030Z,97873.28
2023-04-24T13:54:11.476Z,97875.13
2023-04-24T13:59:15.145Z,97880.66
2023-04-24T14:04:18.304Z,97862.75
2023-04-24T14:09:22.743Z,97865.63
2023-04-24T14:14:25.846Z,97858.00
2023-04-24T14:19:28.840Z,97852.66
2023-04-24T14:24:33.078Z,97859.03
2023-04-24T14:29:36.156Z,97851.72
2023-04-24T14:34:39.037Z,97855.47
2023-04-24T14:39:45.958Z,97864.59
2023-04-24T14:44:50.730Z,97854.91
2023-04-24T14:49:53.919Z,97863.19
2023-04-24T14:54:58.161Z,97861.41
2023-04-24T15:00:01.411Z,97867.91
2023-04-24T15:05:05.155Z,97872.25
2023-04-24T15:10:10.824Z,97875.03
2023-04-24T15:15:13.813Z,97878.16
2023-04-24T15:20:16.817Z,97878.84
2023-04-24T15:25:21.251Z,97886.38
2023-04-24T15:30:24.229Z,97892.06
2023-04-24T15:35:27.139Z,97900.97
2023-04-24T15:40:31.441Z,97893.44
2023-04-24T15:45:34.962Z,97897.00
2023-04-24T15:50:37.993Z,97906.84
2023-04-24T15:55:42.244Z,97917.91
2023-04-24T16:00:45.376Z,97911.63
2023-04-24T16:05:48.361Z,97926.47
2023-04-24T16:10:53.137Z,97920.78
2023-04-24T16:15:56.654Z,97926.19
2023-04-24T16:20:59.809Z,97923.81
2023-04-24T16:26:04.182Z,97929.78
2023-04-24T16:31:07.251Z,97928.03
2023-04-24T16:36:10.342Z,97947.41
2023-04-24T16:41:14.627Z,97962.53
2023-04-24T16:46:17.589Z,97963.34
2023-04-24T16:51:20.523Z,97966.59
2023-04-24T16:56:25.503Z,97973.97
2023-04-24T17:01:29.070Z,97970.00
2023-04-24T17:06:32.327Z,97967.63
2023-04-24T17:11:36.877Z,97995.09
2023-04-24T17:16:40.496Z,97985.06
2023-04-24T17:21:43.433Z,97980.00
2023-04-24T17:26:48.241Z,97997.69
2023-04-24T17:31:52.054Z,98011.59
2023-04-24T17:36:55.487Z,98024.78
2023-04-24T17:42:00.181Z,98028.94
2023-04-24T17:47:04.001Z,98036.81
2023-04-24T17:52:07.164Z,98038.66
2023-04-24T17:57:11.627Z,98040.97
2023-04-24T18:02:14.721Z,98062.47
2023-04-24T18:07:17.816Z,98057.56
2023-04-24T18:12:22.097Z,98067.81
2023-04-24T18:17:25.688Z,98083.59
2023-04-24T18:22:28.744Z,98091.28
2023-04-24T18:27:33.391Z,98102.13
2023-04-24T18:32:36.478Z,98098.16
2023-04-24T18:37:40.693Z,98104.44
2023-04-24T18:42:45.586Z,98112.75
2023-04-24T18:47:49.061Z,98127.72
2023-04-24T18:52:52.099Z,98128.31
2023-04-24T18:57:56.363Z,98128.34
2023-04-24T19:02:59.369Z,98131.88
2023-04-24T19:08:02.383Z,98143.44
2023-04-24T19:13:06.724Z,98148.41
2023-04-24T19:18:10.247Z,98158.00
2023-04-24T19:23:13.256Z,98166.53
2023-04-24T19:28:17.526Z,98168.16
2023-04-24T19:33:20.463Z,98165.81
2023-04-24T19:38:23.437Z,98170.75
2023-04-24T19:43:27.668Z,98169.19
2023-04-24T19:48:32.618Z,98171.06
2023-04-24T19:53:35.581Z,98164.97
2023-04-24T19:58:39.845Z,98164.09
2023-04-24T20:03:42.904Z,98177.09
2023-04-24T20:08:46.098Z,98166.81
2023-04-24T20:13:50.502Z,98185.94
2023-04-24T20:18:53.352Z,98185.94
2023-04-24T20:23:56.272Z,98175.88
2023-04-24T20:29:00.550Z,98184.97
2023-04-24T20:34:04.177Z,98187.38
2023-04-24T20:39:08.180Z,98185.56
2023-04-24T20:44:12.650Z,98196.47
2023-04-24T20:49:15.611Z,98185.44
2023-04-24T20:54:18.525Z,98189.38
2023-04-24T20:59:22.762Z,98195.13
2023-04-24T21:04:26.294Z,98210.72
2023-04-24T21:09:29.462Z,98198.25
2023-04-24T21:14:33.772Z,98203.63
2023-04-24T21:19:36.631Z,98202.59
2023-04-24T21:24:39.525Z,98195.91
2023-04-24T21:29:43.900Z,98190.69
2023-04-24T21:34:46.784Z,98187.06
2023-04-24T21:39:49.625Z,98196.28
2023-04-24T21:44:53.989Z,98185.69
2023-04-24T21:49:56.898Z,98184.22
2023-04-24T21:54:59.828Z,98184.22
2023-04-24T22:00:06.084Z,98173.16
2023-04-24T22:05:15.446Z,98177.94
2023-04-24T22:10:18.669Z,98170.00
2023-04-24T22:15:22.894Z,98173.44
2023-04-24T22:20:26.028Z,98169.94
2023-04-24T22:25:29.039Z,98166.66
2023-04-24T22:30:33.299Z,98170.09
2023-04-24T22:35:37.466Z,98170.78
2023-04-24T22:40:40.546Z,98170.88
2023-04-24T22:45:44.768Z,98163.50
2023-04-24T22:50:47.671Z,98165.53
2023-04-24T22:55:50.600Z,98171.47
2023-04-24T23:00:54.940Z,98166.91
2023-04-24T23:05:57.820Z,98171.13
2023-04-24T23:11:00.876Z,98179.44
2023-04-24T23:16:05.947Z,98173.41
2023-04-24T23:21:08.951Z,98178.28
2023-04-24T23:26:11.858Z,98181.16
2023-04-24T23:31:16.253Z,98176.09
2023-04-24T23:36:19.185Z,98166.91
2023-04-24T23:41:22.070Z,98162.38
2023-04-24T23:46:26.436Z,98167.81
2023-04-24T23:51:29.636Z,98161.69
2023-04-24T23:56:32.549Z,98153.63
